• Join FlightAware (Why Join?)
  • Login
  • US Flag 
10:50AM EDT


 

Airport Tracker/Info


-or-


 

Live Flight TrackerFlight Track Log ✈ UAL395 ✈ 14-Aug-2013 ✈ KIAH - KSAT

Flight Track Log - Related Links

Times and Time Zones

All times are in EDT time to prevent confusion due to time zone crossing. See the UAL395 flight status page for this flight to view local times or setup timezone preferences in your user account.

Time Position Orientation Groundspeed Altitude Reporting Facility
EDT Latitude Longitude Course Direction KTS MPH feet Rate Location/Type
12:32AM 29.9578 -95.3464 247° West 163 188 900  Level Houston Center
12:33AM 29.9169 -95.3828 218° Southwest 209 241 2,500 1,500 Climbing Houston Center
12:34AM 29.8697 -95.4414 227° Southwest 277 319 4,000 780 Climbing Houston Center
12:35AM 29.8450 -95.7444 251° West  Level FlightAware Approximate
12:35AM 29.8633 -95.5097 264° West 274 315 4,000  Level Houston Center
12:36AM 29.8101 -95.8473 247° West  Level FlightAware Approximate
12:36AM 29.8497 -95.6147 262° West 274 315 8,000  Level Houston Center
12:37AM 29.7731 -95.9491 247° West  Level FlightAware Approximate
12:37AM 29.8383 -95.6981 261° West 296 341 10,400  Level Houston Center
12:38AM 29.8236 -95.8153 262° West 401 461 11,200 1,560 Climbing Houston Center
12:39AM 29.8086 -95.9325 262° West 403 464 13,500 2,040 Climbing Houston Center
12:40AM 29.7925 -96.0797 263° West 413 475 15,700 1,800 Climbing Houston Center
12:41AM 29.7822 -96.2158 265° West 428 493 17,700 2,340 Climbing Houston Center
12:42AM 29.7917 -96.3492 275° West 419 482 20,500 2,220 Climbing Houston Center
12:43AM 29.8044 -96.5119 275° West 430 495 22,200 1,500 Climbing Houston Center
12:44AM 29.8142 -96.6514 275° West 441 507 23,600 1,380 Climbing Houston Center
12:45AM 29.8247 -96.7933 275° West 448 516 25,000 1,080 Climbing Houston Center
12:46AM 29.8353 -96.9386 275° West 458 527 25,900 420 Climbing Houston Center
12:47AM 29.8450 -97.0847 274° West 461 531 25,900 -300 Level Houston Center
12:48AM 29.8558 -97.2353 275° West 469 540 25,400 -1,740 Descending Houston Center
12:49AM 29.8656 -97.3853 274° West 472 543 22,500 -2,880 Descending Houston Center
12:50AM 29.8764 -97.5272 275° West 454 522 19,700 -3,000 Descending Houston Center
12:51AM 29.8844 -97.6489 274° West 422 486 17,100 -3,300 Descending Houston Center
12:51AM 29.8864 -97.7114 272° West 415 478 15,500 -3,000 Descending Houston Center
12:52AM 29.8953 -97.8125 276° West 415 478 13,400 -2,040 Descending Houston Center
12:53AM 29.8756 -97.9311 259° West 375 432 12,000 -1,440 Descending Houston Center
12:54AM 29.8467 -98.0408 253° West 360 414 10,600 -1,140 Descending Houston Center
12:55AM 29.8206 -98.1353 252° West 313 360 9,800 -1,140 Descending Houston Center
12:56AM 29.7972 -98.2206 253° West 284 327 8,400 -1,440 Descending Houston Center
12:57AM 29.7733 -98.3050 252° West 279 321 6,900 -1,500 Descending Houston Center
12:58AM 29.7494 -98.3894 252° West 278 320 5,400 -1,380 Descending Houston Center
12:59AM 29.7144 -98.4747 245° Southwest 275 316 4,200 -1,200 Descending Houston Center
01:00AM 29.6669 -98.5397 230° Southwest 268 308 3,100 -660 Descending Houston Center
01:01AM 29.6208 -98.5717 211° Southwest 198 228 2,900 -480 Descending Houston Center
01:02AM 29.5903 -98.5467 145° Southeast 142 163 2,200 -720 Descending Houston Center
01:03AM 29.5664 -98.5156 131° Southeast 131 151 1,500 -660 Descending Houston Center
01:04AM 29.5428 -98.4839 131° Southeast 130 150 900 -600 Descending Houston Center